createdAt,value
2023-07-17T00:02:43.930Z,100234.20
2023-07-17T00:06:45.857Z,100240.73
2023-07-17T00:10:47.533Z,100249.73
2023-07-17T00:14:49.403Z,100254.38
2023-07-17T00:18:51.366Z,100253.75
2023-07-17T00:22:53.380Z,100251.10
2023-07-17T00:26:55.249Z,100243.51
2023-07-17T00:30:57.116Z,100245.34
2023-07-17T00:34:58.912Z,100249.07
2023-07-17T00:39:00.643Z,100246.52
2023-07-17T00:43:02.526Z,100234.84
2023-07-17T00:47:05.869Z,100234.27
2023-07-17T00:51:07.882Z,100237.77
2023-07-17T00:55:09.967Z,100247.13
2023-07-17T00:59:13.276Z,100254.77
2023-07-17T01:03:15.252Z,100250.08
2023-07-17T01:07:17.413Z,100252.81
2023-07-17T01:11:19.592Z,100250.52
2023-07-17T01:15:21.371Z,100262.02
2023-07-17T01:19:23.242Z,100282.40
2023-07-17T01:23:25.344Z,100275.60
2023-07-17T01:27:27.065Z,100255.16
2023-07-17T01:31:28.828Z,100255.80
2023-07-17T01:35:30.598Z,100267.73
2023-07-17T01:39:32.568Z,100272.75
2023-07-17T01:43:34.563Z,100279.46
2023-07-17T01:47:36.351Z,100273.46
2023-07-17T01:51:38.226Z,100278.63
2023-07-17T01:55:39.953Z,100288.57
2023-07-17T01:59:41.778Z,100292.34
2023-07-17T02:03:43.516Z,100291.38
2023-07-17T02:07:45.300Z,100302.88
2023-07-17T02:11:47.003Z,100319.20
2023-07-17T02:15:48.642Z,100320.73
2023-07-17T02:19:50.211Z,100319.38
2023-07-17T02:23:52.217Z,100312.33
2023-07-17T02:27:54.318Z,100308.09
2023-07-17T02:31:56.143Z,100310.20
2023-07-17T02:35:57.762Z,100309.41
2023-07-17T02:39:59.499Z,100317.61
2023-07-17T02:44:01.387Z,100327.86
2023-07-17T02:48:04.532Z,100329.65
2023-07-17T02:52:07.783Z,100331.52
2023-07-17T02:56:09.443Z,100335.11
2023-07-17T03:00:13.161Z,100334.48
2023-07-17T03:04:15.313Z,100331.72
2023-07-17T03:08:17.089Z,100332.48
2023-07-17T03:12:18.809Z,100332.56
2023-07-17T03:16:21.251Z,100325.23
2023-07-17T03:20:23.131Z,100316.59
2023-07-17T03:24:24.921Z,100314.63
2023-07-17T03:28:26.810Z,100312.16
2023-07-17T03:32:35.602Z,100306.23
2023-07-17T03:36:37.526Z,100298.92
2023-07-17T03:40:39.467Z,100299.27
2023-07-17T03:44:41.171Z,100293.63
2023-07-17T03:48:42.893Z,100288.98
2023-07-17T03:52:44.845Z,100281.21
2023-07-17T03:56:46.962Z,100279.77
2023-07-17T04:00:48.994Z,100283.00
2023-07-17T04:04:51.263Z,100278.21
2023-07-17T04:08:53.013Z,100275.67
2023-07-17T04:12:55.019Z,100267.85
2023-07-17T04:16:56.993Z,100271.31
2023-07-17T04:20:58.977Z,100278.05
2023-07-17T04:25:02.682Z,100272.98
2023-07-17T04:29:04.571Z,100275.14
2023-07-17T04:33:06.611Z,100285.36
2023-07-17T04:37:08.644Z,100285.45
2023-07-17T04:41:10.801Z,100284.45
2023-07-17T04:45:13.382Z,100284.23
2023-07-17T04:49:15.156Z,100282.58
2023-07-17T04:53:17.313Z,100281.05
2023-07-17T04:57:19.369Z,100284.48
2023-07-17T05:01:21.872Z,100283.30
2023-07-17T05:05:24.472Z,100289.75
2023-07-17T05:09:26.848Z,100289.34
2023-07-17T05:13:29.782Z,100295.02
2023-07-17T05:17:32.214Z,100296.97
2023-07-17T05:21:35.065Z,100285.89
2023-07-17T05:25:37.702Z,100286.19
2023-07-17T05:29:40.174Z,100285.30
2023-07-17T05:33:42.642Z,100286.64
2023-07-17T05:37:45.340Z,100286.81
2023-07-17T05:41:47.909Z,100280.02
2023-07-17T05:45:50.376Z,100264.42
2023-07-17T05:49:52.627Z,100257.73
2023-07-17T05:53:55.373Z,100258.36
2023-07-17T05:57:57.785Z,100253.36
2023-07-17T06:02:00.392Z,100244.33
2023-07-17T06:06:04.343Z,100228.80
2023-07-17T06:10:08.418Z,100220.45
2023-07-17T06:14:10.886Z,100212.18
2023-07-17T06:18:13.402Z,100211.60
2023-07-17T06:22:16.559Z,100217.58
2023-07-17T06:26:19.178Z,100227.20
2023-07-17T06:30:21.967Z,100240.53
2023-07-17T06:34:24.435Z,100247.56
2023-07-17T06:38:28.052Z,100256.99
2023-07-17T06:42:31.881Z,100259.27
2023-07-17T06:46:34.664Z,100256.52
2023-07-17T06:50:37.427Z,100252.29
2023-07-17T06:54:57.001Z,100247.55
2023-07-17T06:59:02.489Z,100235.36
2023-07-17T07:03:05.237Z,100241.45
2023-07-17T07:07:07.848Z,100244.02
2023-07-17T07:11:11.002Z,100263.28
2023-07-17T07:15:13.540Z,100262.59
2023-07-17T07:19:16.275Z,100263.10
2023-07-17T07:23:20.030Z,100265.32
2023-07-17T07:27:22.410Z,100272.64
2023-07-17T07:31:24.953Z,100275.61
2023-07-17T07:35:27.623Z,100278.09
2023-07-17T07:39:30.248Z,100277.07
2023-07-17T07:43:32.489Z,100272.67
2023-07-17T07:47:34.812Z,100278.54
2023-07-17T07:51:37.374Z,100292.30
2023-07-17T07:55:41.031Z,100279.27
2023-07-17T07:59:52.552Z,100281.65
2023-07-17T08:03:55.134Z,100277.69
2023-07-17T08:07:57.418Z,100282.59
2023-07-17T08:11:59.893Z,100297.05
2023-07-17T08:16:02.163Z,100307.08
2023-07-17T08:20:05.715Z,100308.19
2023-07-17T08:24:08.116Z,100314.45
2023-07-17T08:28:10.677Z,100318.06
2023-07-17T08:32:12.969Z,100328.10
2023-07-17T08:36:15.247Z,100331.91
2023-07-17T08:40:17.749Z,100329.91
2023-07-17T08:44:21.221Z,100321.30
2023-07-17T08:48:24.779Z,100317.44
2023-07-17T08:52:29.216Z,100322.13
2023-07-17T08:56:32.396Z,100325.02
2023-07-17T09:00:35.029Z,100325.67
2023-07-17T09:04:37.566Z,100315.32
2023-07-17T09:08:40.239Z,100312.66
2023-07-17T09:12:43.955Z,100312.90
2023-07-17T09:16:47.691Z,100308.27
2023-07-17T09:21:05.378Z,100301.11
2023-07-17T09:25:09.072Z,100299.11
2023-07-17T09:29:14.819Z,100293.67
2023-07-17T09:33:25.607Z,100305.92
2023-07-17T09:37:32.322Z,100304.16
2023-07-17T09:41:35.590Z,100291.27
2023-07-17T09:45:38.366Z,100292.96
2023-07-17T09:49:41.695Z,100292.16
2023-07-17T09:53:46.304Z,100291.50
2023-07-17T09:57:53.675Z,100293.70
2023-07-17T10:01:58.982Z,100299.21
2023-07-17T10:06:02.761Z,100293.70
2023-07-17T10:10:07.866Z,100294.70
2023-07-17T10:14:12.947Z,100297.55
2023-07-17T10:18:15.724Z,100298.72
2023-07-17T10:22:18.719Z,100290.75
2023-07-17T10:26:22.440Z,100283.10
2023-07-17T10:30:26.086Z,100280.27
2023-07-17T10:34:47.757Z,100284.56
2023-07-17T10:38:54.005Z,100283.65
2023-07-17T10:43:11.729Z,100283.23
2023-07-17T10:47:14.052Z,100274.77
2023-07-17T10:51:16.496Z,100268.84
2023-07-17T10:55:19.390Z,100270.10
2023-07-17T10:59:23.795Z,100266.60
2023-07-17T11:03:27.438Z,100260.91
2023-07-17T11:07:36.955Z,100265.39
2023-07-17T11:11:39.885Z,100255.23
2023-07-17T11:15:44.262Z,100258.01
2023-07-17T11:19:47.086Z,100257.84
2023-07-17T11:23:54.589Z,100254.79
2023-07-17T11:28:00.061Z,100245.64
2023-07-17T11:32:02.717Z,100237.42
2023-07-17T11:36:16.659Z,100231.67
2023-07-17T11:40:19.201Z,100223.65
2023-07-17T11:44:27.319Z,100215.56
2023-07-17T11:48:33.684Z,100211.89
2023-07-17T11:52:35.740Z,100222.69
2023-07-17T11:56:43.422Z,100212.05
2023-07-17T12:00:50.763Z,100210.13
2023-07-17T12:04:53.183Z,100206.52
2023-07-17T12:08:55.644Z,100209.07
2023-07-17T12:12:58.374Z,100203.99
2023-07-17T12:17:01.142Z,100206.45
2023-07-17T12:21:03.652Z,100204.02
2023-07-17T12:25:06.512Z,100208.40
2023-07-17T12:29:08.858Z,100205.41
2023-07-17T12:33:11.065Z,100211.12
2023-07-17T12:37:13.383Z,100215.58
2023-07-17T12:41:16.129Z,100216.50
2023-07-17T12:45:18.780Z,100211.90
2023-07-17T12:49:21.238Z,100210.83
2023-07-17T12:53:23.515Z,100203.71
2023-07-17T12:57:28.727Z,100209.23
2023-07-17T13:01:32.078Z,100193.27
2023-07-17T13:05:34.877Z,100192.39
2023-07-17T13:09:37.110Z,100190.98
2023-07-17T13:13:39.434Z,100185.88
2023-07-17T13:17:45.893Z,100190.35
2023-07-17T13:21:49.099Z,100195.04
2023-07-17T13:25:51.637Z,100191.08
2023-07-17T13:29:55.294Z,100184.27
2023-07-17T13:33:57.297Z,100184.38
2023-07-17T13:37:59.461Z,100178.86
2023-07-17T13:42:01.765Z,100177.91
2023-07-17T13:46:03.870Z,100175.13
2023-07-17T13:50:07.043Z,100177.21
2023-07-17T13:54:10.416Z,100179.73
2023-07-17T13:58:16.218Z,100163.73
2023-07-17T14:02:18.708Z,100152.56
2023-07-17T14:06:21.428Z,100146.31
2023-07-17T14:10:24.984Z,100144.66
2023-07-17T14:14:29.815Z,100141.63
2023-07-17T14:18:34.191Z,100140.94
2023-07-17T14:22:40.135Z,100134.54
2023-07-17T14:26:42.457Z,100131.08
2023-07-17T14:30:45.145Z,100121.63
2023-07-17T14:34:47.377Z,100120.16
2023-07-17T14:38:49.616Z,100120.70
2023-07-17T14:42:53.039Z,100119.58
2023-07-17T14:46:55.561Z,100118.89
2023-07-17T14:50:58.745Z,100115.39
2023-07-17T14:55:00.814Z,100116.94
2023-07-17T14:59:03.160Z,100115.02
2023-07-17T15:03:05.511Z,100107.56
2023-07-17T15:07:09.113Z,100102.05
2023-07-17T15:11:12.487Z,100097.25
2023-07-17T15:15:14.915Z,100088.12
2023-07-17T15:19:17.510Z,100085.83
2023-07-17T15:23:19.688Z,100081.65
2023-07-17T15:27:21.720Z,100085.64
2023-07-17T15:31:23.733Z,100084.28
2023-07-17T15:35:26.044Z,100077.15
2023-07-17T15:39:28.184Z,100075.24
2023-07-17T15:43:30.506Z,100076.48
2023-07-17T15:47:32.733Z,100077.08
2023-07-17T15:51:35.180Z,100079.89
2023-07-17T15:55:38.002Z,100084.88
2023-07-17T15:59:40.114Z,100084.60
2023-07-17T16:03:42.425Z,100083.11
2023-07-17T16:07:44.622Z,100084.31
2023-07-17T16:11:46.743Z,100086.98
2023-07-17T16:15:49.305Z,100081.41
2023-07-17T16:19:51.361Z,100081.36
2023-07-17T16:23:53.811Z,100077.45
2023-07-17T16:27:56.980Z,100075.79
2023-07-17T16:31:59.504Z,100075.48
2023-07-17T16:36:01.690Z,100078.08
2023-07-17T16:40:06.864Z,100077.43
2023-07-17T16:44:09.284Z,100074.90
2023-07-17T16:48:14.591Z,100076.06
2023-07-17T16:52:16.929Z,100083.31
2023-07-17T16:56:19.844Z,100080.27
2023-07-17T17:00:24.298Z,100079.95
2023-07-17T17:04:26.509Z,100079.34
2023-07-17T17:08:28.710Z,100080.11
2023-07-17T17:12:31.067Z,100083.89
2023-07-17T17:16:33.395Z,100087.23
2023-07-17T17:20:35.476Z,100088.70
2023-07-17T17:24:37.722Z,100091.45
2023-07-17T17:28:39.935Z,100091.60
2023-07-17T17:32:42.928Z,100090.33
2023-07-17T17:36:45.021Z,100087.67
2023-07-17T17:40:47.852Z,100092.35
2023-07-17T17:44:49.856Z,100091.46
2023-07-17T17:48:52.294Z,100095.21
2023-07-17T17:52:54.628Z,100095.56
2023-07-17T17:56:58.703Z,100096.97
2023-07-17T18:01:01.241Z,100099.81
2023-07-17T18:05:03.632Z,100102.17
2023-07-17T18:09:05.802Z,100101.85
2023-07-17T18:13:07.950Z,100099.48
2023-07-17T18:17:10.760Z,100102.77
2023-07-17T18:21:13.006Z,100101.42
2023-07-17T18:25:14.942Z,100108.27
2023-07-17T18:29:16.982Z,100107.30
2023-07-17T18:33:19.084Z,100113.61
2023-07-17T18:37:21.115Z,100117.41
2023-07-17T18:41:23.117Z,100122.63
2023-07-17T18:45:25.989Z,100125.77
2023-07-17T18:49:28.275Z,100128.53
2023-07-17T18:53:30.836Z,100132.59
2023-07-17T18:57:32.951Z,100138.93
2023-07-17T19:01:35.363Z,100134.31
2023-07-17T19:05:37.738Z,100141.98
2023-07-17T19:09:39.755Z,100147.88
2023-07-17T19:13:41.741Z,100150.67
2023-07-17T19:17:44.767Z,100159.05
2023-07-17T19:21:46.924Z,100164.02
2023-07-17T19:25:49.046Z,100166.27
2023-07-17T19:29:51.381Z,100165.46
2023-07-17T19:33:54.629Z,100160.70
2023-07-17T19:37:56.584Z,100170.34
2023-07-17T19:41:58.865Z,100175.23
2023-07-17T19:46:00.791Z,100178.77
2023-07-17T19:50:02.654Z,100179.54
2023-07-17T19:54:04.772Z,100181.39
2023-07-17T19:58:08.115Z,100186.81
2023-07-17T20:02:10.608Z,100192.84
2023-07-17T20:06:14.024Z,100196.88
2023-07-17T20:10:16.832Z,100197.20
2023-07-17T20:14:18.838Z,100207.80
2023-07-17T20:18:21.192Z,100206.81
2023-07-17T20:22:23.114Z,100211.64
2023-07-17T20:26:25.258Z,100209.38
2023-07-17T20:30:27.484Z,100210.57
2023-07-17T20:34:29.538Z,100211.83
2023-07-17T20:38:31.563Z,100215.09
2023-07-17T20:42:48.938Z,100215.77
2023-07-17T20:46:51.328Z,100219.95
2023-07-17T20:51:12.355Z,100221.26
2023-07-17T20:55:19.762Z,100225.30
2023-07-17T20:59:21.751Z,100227.35
2023-07-17T21:03:23.738Z,100227.85
2023-07-17T21:07:25.919Z,100230.24
2023-07-17T21:11:29.027Z,100231.25
2023-07-17T21:15:31.103Z,100230.84
2023-07-17T21:19:32.973Z,100235.40
2023-07-17T21:23:34.922Z,100243.94
2023-07-17T21:27:36.672Z,100251.52
2023-07-17T21:31:38.568Z,100255.09
2023-07-17T21:35:40.788Z,100260.56
2023-07-17T21:39:42.692Z,100262.35
2023-07-17T21:43:44.374Z,100268.34
2023-07-17T21:47:46.551Z,100274.08
2023-07-17T21:51:48.302Z,100282.73
2023-07-17T21:55:50.089Z,100290.79
2023-07-17T21:59:53.642Z,100304.59
2023-07-17T22:03:56.722Z,100313.40
2023-07-17T22:07:58.512Z,100313.38
2023-07-17T22:12:00.297Z,100314.77
2023-07-17T22:16:03.437Z,100311.77
2023-07-17T22:20:07.369Z,100319.07
2023-07-17T22:24:09.564Z,100329.22
2023-07-17T22:28:11.381Z,100346.73
2023-07-17T22:32:14.489Z,100361.40
2023-07-17T22:36:16.170Z,100371.30
2023-07-17T22:40:18.156Z,100386.02
2023-07-17T22:44:19.967Z,100402.29
2023-07-17T22:48:21.826Z,100411.71
2023-07-17T22:52:23.921Z,100423.63
2023-07-17T22:56:26.033Z,100415.88
2023-07-17T23:00:28.010Z,100422.33
2023-07-17T23:04:30.763Z,100422.33
2023-07-17T23:08:33.560Z,100430.84
2023-07-17T23:12:39.361Z,100441.59
2023-07-17T23:16:41.426Z,100442.30
2023-07-17T23:20:43.387Z,100444.46
2023-07-17T23:24:45.604Z,100435.72
2023-07-17T23:28:48.516Z,100438.54
2023-07-17T23:32:50.514Z,100452.91
2023-07-17T23:36:52.366Z,100457.18
2023-07-17T23:40:54.182Z,100449.81
2023-07-17T23:44:56.851Z,100448.84
2023-07-17T23:49:01.836Z,100466.52
2023-07-17T23:53:03.915Z,100484.73
2023-07-17T23:57:07.421Z,100497.16
